Time;durP1;ratioP1;P1;durP2;ratioP2;P2;SDS_P1;SDS_P2;PMS_P1;PMS_P2;Temp;Humidity;BMP_temperature;BMP_pressure;BME280_temperature;BME280_humidity;BME280_pressure;Samples;Min_cycle;Max_cycle;Signal;HPM_P1;HPM_P2
2021/11/14 00:00:25;;;;;;;10.07;6.78;;;;;;;14.53;54.80;101232.19;4950645;29;20055;-83
2021/11/14 00:02:54;;;;;;;9.48;6.50;;;;;;;14.50;54.61;101239.72;4940165;28;20051;-84
2021/11/14 00:05:32;;;;;;;10.27;7.35;;;;;;;14.49;54.74;101240.75;4934233;29;20422;-83
2021/11/14 00:07:59;;;;;;;11.75;7.50;;;;;;;14.48;54.41;101242.59;4952962;29;20047;-84
2021/11/14 00:10:27;;;;;;;10.30;7.20;;;;;;;14.47;54.47;101232.66;4949689;29;20059;-83
2021/11/14 00:12:54;;;;;;;10.95;8.02;;;;;;;14.47;54.59;101232.66;4950912;29;20055;-83
2021/11/14 00:15:23;;;;;;;11.25;7.72;;;;;;;14.46;54.74;101234.53;4950791;29;20051;-83
2021/11/14 00:17:49;;;;;;;10.52;7.15;;;;;;;14.45;54.81;101245.56;4967297;28;20039;-84
2021/11/14 00:20:17;;;;;;;10.30;7.38;;;;;;;14.44;54.70;101236.50;4946035;28;20066;-84
2021/11/14 00:22:43;;;;;;;10.43;7.63;;;;;;;14.45;54.91;101240.09;4950016;29;20058;-83
2021/11/14 00:25:13;;;;;;;11.40;8.05;;;;;;;14.44;55.12;101239.22;4933215;29;20059;-83
2021/11/14 00:27:42;;;;;;;11.23;8.30;;;;;;;14.45;54.74;101251.91;4948308;29;20103;-84
2021/11/14 00:30:09;;;;;;;10.70;7.57;;;;;;;14.43;54.53;101247.53;4941864;29;20055;-83
2021/11/14 00:32:36;;;;;;;10.63;7.43;;;;;;;14.42;54.70;101248.50;4934715;29;20075;-83
2021/11/14 00:35:04;;;;;;;9.63;7.32;;;;;;;14.43;54.66;101255.72;4948553;28;20074;-84
2021/11/14 00:37:34;;;;;;;11.32;8.02;;;;;;;14.42;54.97;101254.84;4949442;29;20075;-83
2021/11/14 00:40:03;;;;;;;10.32;6.95;;;;;;;14.43;54.62;101250.25;4965621;28;20070;-84
2021/11/14 00:42:29;;;;;;;11.60;7.85;;;;;;;14.44;54.80;101249.28;4949759;29;20086;-83
2021/11/14 00:44:56;;;;;;;10.15;7.50;;;;;;;14.43;55.20;101247.53;4952907;28;20046;-82
2021/11/14 00:47:23;;;;;;;10.05;7.15;;;;;;;14.41;54.69;101247.63;4954476;28;20051;-83
2021/11/14 00:49:50;;;;;;;10.57;7.35;;;;;;;14.41;54.76;101253.09;4952173;28;20528;-82
2021/11/14 00:52:16;;;;;;;10.82;7.43;;;;;;;14.42;54.72;101252.13;4969184;28;20101;-82
2021/11/14 00:54:43;;;;;;;9.90;6.60;;;;;;;14.41;55.01;101253.09;4953108;28;20459;-83
2021/11/14 00:57:10;;;;;;;10.93;6.82;;;;;;;14.41;55.18;101261.31;4985680;28;20096;-83
2021/11/14 00:59:37;;;;;;;10.55;6.78;;;;;;;14.41;55.10;101252.25;4975134;28;20105;-84
2021/11/14 01:02:04;;;;;;;9.77;6.22;;;;;;;14.40;54.69;101253.25;4958841;28;20146;-83
2021/11/14 01:04:30;;;;;;;8.15;6.10;;;;;;;14.39;54.84;101257.84;4979827;28;20057;-82
2021/11/14 01:06:58;;;;;;;9.02;6.68;;;;;;;14.41;54.73;101260.47;4981132;28;20061;-83
2021/11/14 01:09:26;;;;;;;7.80;5.78;;;;;;;14.41;54.96;101263.19;4953377;28;20086;-83
2021/11/14 01:11:53;;;;;;;8.32;5.97;;;;;;;14.41;54.76;101263.19;4965781;28;20070;-83
2021/11/14 01:14:20;;;;;;;9.13;6.50;;;;;;;14.41;54.99;101279.59;4974336;28;20078;-83
2021/11/14 01:16:46;;;;;;;9.68;6.60;;;;;;;14.40;55.03;101270.50;4974787;28;20106;-82
2021/11/14 01:19:13;;;;;;;7.75;5.30;;;;;;;14.41;55.11;101274.13;4952680;28;20051;-82
2021/11/14 01:21:45;;;;;;;7.80;5.55;;;;;;;14.41;54.88;101268.66;4960881;28;20077;-83
2021/11/14 01:24:15;;;;;;;8.18;5.32;;;;;;;14.39;55.04;101273.34;4970612;28;20051;-81
2021/11/14 01:26:42;;;;;;;8.88;5.82;;;;;;;14.41;55.08;101276.84;4971694;28;20050;-83
2021/11/14 01:29:09;;;;;;;7.93;5.65;;;;;;;14.42;55.10;101281.28;4976490;28;20584;-83
2021/11/14 01:31:36;;;;;;;7.63;5.30;;;;;;;14.42;54.86;101284.91;4952291;28;20055;-83
2021/11/14 01:34:03;;;;;;;8.52;5.38;;;;;;;14.43;55.15;101285.78;4978849;28;20078;-83
2021/11/14 01:36:34;;;;;;;7.82;5.32;;;;;;;14.44;54.74;101285.66;4970909;28;20117;-83
2021/11/14 01:39:02;;;;;;;6.32;4.75;;;;;;;14.44;55.06;101290.25;4962891;28;20075;-82
2021/11/14 01:41:35;;;;;;;7.35;5.05;;;;;;;14.46;55.25;101289.16;4948546;29;20186;-83
2021/11/14 01:44:04;;;;;;;7.20;4.72;;;;;;;14.43;55.04;101289.38;4936391;29;20118;-83
2021/11/14 01:46:35;;;;;;;7.57;5.05;;;;;;;14.48;54.77;101291.78;4953770;28;20485;-83
2021/11/14 01:49:03;;;;;;;6.47;4.53;;;;;;;14.48;54.77;101289.06;4951602;29;20084;-83
2021/11/14 01:51:52;;;;;;;7.20;4.88;;;;;;;14.48;54.71;101294.50;4927667;29;20133;-83
2021/11/14 01:54:20;;;;;;;7.63;4.85;;;;;;;14.49;54.92;101296.25;4933647;29;20121;-82
2021/11/14 01:56:50;;;;;;;6.55;4.90;;;;;;;14.51;54.73;101298.84;4966242;28;20184;-83
2021/11/14 01:59:17;;;;;;;7.57;4.82;;;;;;;14.51;54.56;101297.00;4950004;29;20149;-83
2021/11/14 02:01:44;;;;;;;7.22;4.65;;;;;;;14.50;54.69;101300.72;4952715;29;20114;-83
2021/11/14 02:04:11;;;;;;;6.93;5.00;;;;;;;14.49;54.97;101298.13;4949563;29;20055;-82
2021/11/14 02:06:40;;;;;;;7.43;5.30;;;;;;;14.49;54.68;101303.59;4964776;28;20081;-83
2021/11/14 02:09:07;;;;;;;7.10;4.95;;;;;;;14.49;54.86;101303.59;4954479;28;20500;-83
2021/11/14 02:11:36;;;;;;;7.22;5.10;;;;;;;14.48;54.54;101299.09;4952798;28;20055;-83
2021/11/14 02:14:02;;;;;;;7.28;5.20;;;;;;;14.46;54.84;101308.28;4969470;28;20142;-83
2021/11/14 02:16:30;;;;;;;7.70;5.40;;;;;;;14.45;54.81;101312.00;4952362;28;20078;-82
2021/11/14 02:18:57;;;;;;;6.85;4.68;;;;;;;14.43;54.54;101303.03;4966532;28;20064;-83
2021/11/14 02:21:25;;;;;;;7.05;5.07;;;;;;;14.43;54.79;101311.25;4970353;28;20058;-83
2021/11/14 02:23:52;;;;;;;7.20;4.85;;;;;;;14.42;54.41;101311.34;4968092;28;20497;-82
2021/11/14 02:26:22;;;;;;;7.43;5.13;;;;;;;14.40;54.59;101314.22;4973443;28;20376;-82
2021/11/14 02:28:51;;;;;;;7.30;5.00;;;;;;;14.39;54.84;101319.78;4969194;28;20058;-82
2021/11/14 02:31:21;;;;;;;7.75;5.07;;;;;;;14.37;54.90;101313.53;4969940;28;20450;-83
2021/11/14 02:33:49;;;;;;;7.28;5.00;;;;;;;14.35;54.87;101321.84;4969795;28;20055;-82
2021/11/14 02:36:18;;;;;;;8.25;5.45;;;;;;;14.34;54.64;101324.69;4979136;28;20050;-82
2021/11/14 02:38:45;;;;;;;7.72;5.43;;;;;;;14.33;54.55;101322.97;4968395;28;20050;-82
2021/11/14 02:41:16;;;;;;;7.63;5.18;;;;;;;14.30;54.83;101329.53;4954140;28;20478;-83
2021/11/14 02:43:45;;;;;;;8.00;5.82;;;;;;;14.29;54.65;101325.03;4967806;28;20485;-82
2021/11/14 02:46:15;;;;;;;6.90;5.00;;;;;;;14.26;54.88;101328.00;4977407;28;20051;-82
2021/11/14 02:48:42;;;;;;;8.13;5.30;;;;;;;14.28;54.70;101334.22;4968804;28;20047;-82
2021/11/14 02:51:16;;;;;;;8.63;5.60;;;;;;;14.28;54.69;101333.34;4984378;28;20543;-82
2021/11/14 02:53:44;;;;;;;7.95;5.80;;;;;;;14.24;54.76;101335.44;4962721;28;20047;-82
2021/11/14 02:56:12;;;;;;;8.02;5.80;;;;;;;14.24;54.68;101337.31;4979947;28;20474;-82
2021/11/14 02:58:41;;;;;;;6.50;4.32;;;;;;;14.26;54.80;101335.31;4967217;28;20331;-82
2021/11/14 03:01:18;;;;;;;7.85;5.47;;;;;;;14.27;54.98;101339.78;4967526;28;20095;-83
2021/11/14 03:03:47;;;;;;;9.63;5.88;;;;;;;14.24;54.83;101346.38;4973492;28;20050;-82
2021/11/14 03:06:15;;;;;;;9.90;6.22;;;;;;;14.25;55.18;101352.69;4973106;28;20053;-83
2021/11/14 03:08:42;;;;;;;11.43;6.70;;;;;;;14.23;54.81;101351.94;4972268;28;20063;-83
2021/11/14 03:11:08;;;;;;;9.73;6.18;;;;;;;14.23;54.82;101350.09;4973569;28;20057;-83
2021/11/14 03:13:36;;;;;;;9.60;6.68;;;;;;;14.23;55.15;101352.81;4972458;28;20481;-82
2021/11/14 03:16:07;;;;;;;10.60;6.80;;;;;;;14.25;54.91;101356.28;4956172;28;20055;-83
2021/11/14 03:18:34;;;;;;;11.93;7.05;;;;;;;14.24;55.09;101353.69;4961441;28;20043;-83
2021/11/14 03:21:02;;;;;;;11.70;7.63;;;;;;;14.24;55.24;101354.56;4981590;28;20046;-83
2021/11/14 03:23:29;;;;;;;14.32;7.88;;;;;;;14.25;54.91;101356.28;4972110;28;20764;-83
2021/11/14 03:25:57;;;;;;;13.23;8.52;;;;;;;14.26;55.20;101368.97;4977915;28;20047;-83
2021/11/14 03:28:24;;;;;;;14.77;8.57;;;;;;;14.26;54.75;101362.63;4965825;28;20071;-83
2021/11/14 03:30:53;;;;;;;14.05;8.77;;;;;;;14.26;54.94;101365.34;4964747;28;20117;-83
2021/11/14 03:33:20;;;;;;;14.18;8.40;;;;;;;14.24;55.23;101370.09;4968078;28;20142;-83
2021/11/14 03:35:50;;;;;;;13.25;8.15;;;;;;;14.23;55.02;101380.13;4963066;28;20130;-83
2021/11/14 03:38:20;;;;;;;12.55;7.47;;;;;;;14.24;55.01;101378.28;4971752;28;20081;-83
2021/11/14 03:40:47;;;;;;;14.85;8.23;;;;;;;14.22;55.04;101372.03;4955276;28;20086;-83
2021/11/14 03:43:14;;;;;;;13.15;7.50;;;;;;;14.21;55.02;101384.81;4972542;28;20402;-83
2021/11/14 03:45:41;;;;;;;13.32;8.00;;;;;;;14.22;54.71;101385.69;4979784;28;20051;-82
2021/11/14 03:48:08;;;;;;;15.25;8.85;;;;;;;14.22;55.01;101386.56;4969439;28;20055;-83
2021/11/14 03:50:35;;;;;;;15.05;8.57;;;;;;;14.20;54.95;101385.81;4988342;28;20062;-83
2021/11/14 03:53:07;;;;;;;14.32;8.07;;;;;;;14.21;55.10;101387.56;4970972;28;20134;-83
2021/11/14 03:55:34;;;;;;;13.48;8.23;;;;;;;14.19;55.13;101392.25;4977568;28;20145;-82
2021/11/14 03:58:00;;;;;;;14.73;8.52;;;;;;;14.18;54.87;101393.22;4983399;28;20074;-83
2021/11/14 04:00:30;;;;;;;15.55;8.43;;;;;;;14.20;54.98;101393.13;4976880;28;20047;-83
2021/11/14 04:02:59;;;;;;;14.43;8.60;;;;;;;14.19;55.08;101399.56;4972218;28;20493;-83
2021/11/14 04:05:29;;;;;;;13.80;8.52;;;;;;;14.17;55.42;101399.69;4967564;28;20051;-83
2021/11/14 04:07:57;;;;;;;13.25;8.18;;;;;;;14.18;54.84;101401.44;4965392;28;20418;-82
2021/11/14 04:10:25;;;;;;;13.43;8.27;;;;;;;14.18;55.19;101406.00;4965847;28;20058;-83
2021/11/14 04:12:51;;;;;;;12.90;8.07;;;;;;;14.18;55.29;101398.69;4973135;28;20109;-82
2021/11/14 04:15:18;;;;;;;13.80;8.48;;;;;;;14.19;54.90;101408.63;4979653;28;20055;-83
2021/11/14 04:17:45;;;;;;;13.98;8.48;;;;;;;14.20;55.23;101413.13;4972796;28;20054;-83
2021/11/14 04:20:14;;;;;;;15.80;8.82;;;;;;;14.22;55.39;101413.00;4971122;28;20043;-83
2021/11/14 04:22:40;;;;;;;19.77;10.15;;;;;;;14.21;55.27;101414.88;4972594;28;20055;-83
2021/11/14 04:25:09;;;;;;;15.57;9.00;;;;;;;14.24;54.94;101419.25;4976287;28;20050;-83
2021/11/14 04:27:35;;;;;;;15.27;9.20;;;;;;;14.25;55.28;101418.22;4980261;28;20058;-83
2021/11/14 04:30:03;;;;;;;16.08;8.85;;;;;;;14.25;55.02;101423.69;4970952;28;20093;-84
2021/11/14 04:32:30;;;;;;;14.75;8.57;;;;;;;14.26;55.24;101422.72;4972986;28;20568;-84
2021/11/14 04:34:57;;;;;;;14.82;8.90;;;;;;;14.27;55.19;101428.06;4954296;28;20051;-84
2021/11/14 04:37:23;;;;;;;12.68;7.95;;;;;;;14.28;55.05;101429.81;4970544;28;20046;-83
2021/11/14 04:39:50;;;;;;;15.10;8.23;;;;;;;14.29;55.31;101437.03;4970987;28;20484;-83
2021/11/14 04:42:17;;;;;;;15.80;8.82;;;;;;;14.30;54.98;101436.03;4972576;28;20414;-83
2021/11/14 04:44:44;;;;;;;14.65;9.07;;;;;;;14.31;54.96;101429.59;4969776;28;20070;-83
2021/11/14 04:47:11;;;;;;;15.90;9.27;;;;;;;14.31;54.89;101437.78;4986899;28;20516;-83
2021/11/14 04:49:38;;;;;;;14.95;8.48;;;;;;;14.33;55.17;101433.06;4969853;28;20054;-83
2021/11/14 04:52:05;;;;;;;18.48;9.98;;;;;;;14.32;54.67;101435.94;4973753;28;20851;-83
2021/11/14 04:54:32;;;;;;;14.55;8.75;;;;;;;14.32;55.09;101439.56;4978091;28;20110;-82
2021/11/14 04:56:58;;;;;;;17.55;9.30;;;;;;;14.32;55.09;101441.41;4977712;28;20119;-83
2021/11/14 04:59:27;;;;;;;16.52;8.93;;;;;;;14.32;54.83;101441.41;4963399;28;20079;-83
2021/11/14 05:01:54;;;;;;;14.68;8.20;;;;;;;14.32;55.30;101450.47;4982033;28;20051;-83
2021/11/14 05:04:21;;;;;;;13.32;8.43;;;;;;;14.33;54.97;101456.81;4956441;28;20448;-83
2021/11/14 05:06:48;;;;;;;14.70;8.35;;;;;;;14.33;54.93;101454.91;4974318;28;20047;-83
2021/11/14 05:09:14;;;;;;;14.45;7.97;;;;;;;14.35;55.17;101466.63;4972374;28;20113;-83
2021/11/14 05:11:41;;;;;;;13.85;7.88;;;;;;;14.35;54.65;101460.28;4974200;28;20109;-83
2021/11/14 05:14:08;;;;;;;15.48;8.02;;;;;;;14.36;55.00;101470.22;4973520;28;20498;-83
2021/11/14 05:16:34;;;;;;;16.58;8.82;;;;;;;14.36;54.83;101460.19;4973952;28;20130;-83
2021/11/14 05:19:01;;;;;;;15.90;8.55;;;;;;;14.37;54.98;101464.66;4987524;28;20086;-83
2021/11/14 05:21:28;;;;;;;14.52;8.52;;;;;;;14.37;55.03;101470.13;4986958;28;20047;-83
2021/11/14 05:23:55;;;;;;;16.08;8.68;;;;;;;14.37;54.86;101472.84;4970845;28;20054;-83
2021/11/14 05:26:22;;;;;;;14.50;8.55;;;;;;;14.37;55.03;101483.78;4969216;28;20078;-84
2021/11/14 05:28:48;;;;;;;14.25;8.18;;;;;;;14.37;55.00;101471.97;4971299;28;20131;-83
2021/11/14 05:31:15;;;;;;;15.10;7.72;;;;;;;14.36;55.04;101476.56;4974123;28;20618;-83
2021/11/14 05:33:42;;;;;;;13.93;7.80;;;;;;;14.36;55.22;101481.16;4966699;28;20047;-83
2021/11/14 05:36:09;;;;;;;15.20;8.93;;;;;;;14.35;54.82;101483.00;4969524;28;20457;-83
2021/11/14 05:38:36;;;;;;;15.75;8.75;;;;;;;14.35;54.86;101495.78;4969049;28;20077;-83
2021/11/14 05:41:02;;;;;;;18.27;9.50;;;;;;;14.35;54.75;101490.34;4973857;28;20050;-83
2021/11/14 05:43:29;;;;;;;16.67;8.40;;;;;;;14.33;54.96;101487.69;4973816;28;20086;-83
2021/11/14 05:45:56;;;;;;;16.75;9.20;;;;;;;14.32;54.67;101485.97;4988156;28;20093;-83
2021/11/14 05:48:22;;;;;;;18.63;8.88;;;;;;;14.31;55.17;101492.44;4973120;28;20478;-83
2021/11/14 05:50:49;;;;;;;13.85;7.95;;;;;;;14.33;54.94;101497.78;4971605;28;20129;-83
2021/11/14 05:53:16;;;;;;;16.80;8.05;;;;;;;14.32;54.69;101506.97;4976892;28;20160;-83
2021/11/14 05:55:43;;;;;;;14.70;8.68;;;;;;;14.31;54.76;101494.28;4958818;28;20537;-83
2021/11/14 05:58:17;;;;;;;12.93;8.02;;;;;;;14.31;55.09;101502.47;4969715;28;20106;-83
2021/11/14 06:05:47;;;;;;;19.52;10.18;;;;;;;14.30;55.06;101519.84;4971759;28;20453;-84
2021/11/14 06:08:20;;;;;;;15.98;9.73;;;;;;;14.29;54.97;101524.44;4972898;28;20501;-82
2021/11/14 06:10:49;;;;;;;16.25;9.00;;;;;;;14.27;54.84;101526.41;4987287;28;20498;-83
2021/11/14 06:13:19;;;;;;;17.85;10.07;;;;;;;14.28;55.13;101528.16;4975214;28;20138;-83
2021/11/14 06:15:46;;;;;;;17.50;11.63;;;;;;;14.23;54.85;101532.19;4971884;28;20122;-83
2021/11/14 06:18:13;;;;;;;18.02;11.00;;;;;;;14.21;54.98;101535.03;4972171;28;20054;-83
2021/11/14 06:20:40;;;;;;;18.00;10.93;;;;;;;14.20;54.71;101551.53;4967013;28;20396;-83
2021/11/14 06:23:07;;;;;;;18.40;11.05;;;;;;;14.19;54.78;101552.50;4980141;28;20070;-83
2021/11/14 06:25:33;;;;;;;18.70;11.30;;;;;;;14.17;54.58;101549.00;4978707;28;20058;-83
2021/11/14 06:28:00;;;;;;;19.15;12.00;;;;;;;14.17;54.64;101562.66;4967596;28;20043;-82
2021/11/14 06:30:27;;;;;;;20.35;12.30;;;;;;;14.15;54.67;101562.78;4968170;28;20083;-83
2021/11/14 06:32:55;;;;;;;18.75;11.82;;;;;;;14.14;54.76;101565.63;4973520;28;20078;-83
2021/11/14 06:35:23;;;;;;;19.77;12.25;;;;;;;14.13;54.73;101572.06;4971941;28;20457;-82
2021/11/14 06:37:51;;;;;;;18.73;11.57;;;;;;;14.10;54.84;101571.28;4956355;28;20054;-82
2021/11/14 06:40:18;;;;;;;17.30;11.15;;;;;;;14.09;54.43;101580.47;4970250;28;20121;-83
2021/11/14 06:42:45;;;;;;;19.33;11.90;;;;;;;14.06;54.68;101577.97;4970935;28;20054;-83
2021/11/14 06:45:11;;;;;;;20.95;13.10;;;;;;;14.06;54.64;101585.28;4970327;28;20521;-83
2021/11/14 06:47:38;;;;;;;18.33;11.93;;;;;;;14.06;54.93;101593.47;4972229;28;20498;-82
2021/11/14 06:50:07;;;;;;;20.67;12.82;;;;;;;14.04;54.98;101593.56;4954143;28;20490;-83
2021/11/14 06:52:34;;;;;;;22.33;13.75;;;;;;;14.03;55.12;101602.75;4973828;28;20494;-83
2021/11/14 06:55:01;;;;;;;20.20;12.63;;;;;;;14.03;54.58;101602.75;4971096;28;20062;-82
2021/11/14 06:57:27;;;;;;;22.50;13.23;;;;;;;14.02;55.04;101609.19;4968279;28;20495;-82
2021/11/14 06:59:54;;;;;;;21.98;13.50;;;;;;;14.01;54.86;101612.88;4963367;28;20055;-82
2021/11/14 07:02:21;;;;;;;19.42;13.05;;;;;;;14.00;54.96;101621.22;4971805;28;20097;-82
2021/11/14 07:04:47;;;;;;;20.83;13.32;;;;;;;14.00;54.73;101626.66;4985644;28;20051;-83
2021/11/14 07:07:15;;;;;;;19.60;12.07;;;;;;;13.99;54.85;101624.91;4971831;28;20134;-83
2021/11/14 07:09:42;;;;;;;19.42;11.93;;;;;;;13.99;54.93;101630.38;4973422;28;20055;-83
2021/11/14 07:12:10;;;;;;;21.00;12.52;;;;;;;13.99;55.22;101635.84;4971689;28;20054;-82
2021/11/14 07:14:37;;;;;;;19.50;12.70;;;;;;;13.98;55.22;101647.72;4954840;28;20454;-83
2021/11/14 07:17:04;;;;;;;19.73;12.13;;;;;;;13.98;54.95;101645.00;4971798;28;20054;-83
2021/11/14 07:19:31;;;;;;;18.60;11.80;;;;;;;13.97;54.86;101649.59;4971095;28;20078;-83
2021/11/14 07:21:58;;;;;;;22.27;12.88;;;;;;;13.97;55.32;101649.59;4986338;28;20082;-83
2021/11/14 07:24:25;;;;;;;18.48;11.40;;;;;;;13.96;55.30;101645.09;4972210;28;20124;-82
2021/11/14 07:26:52;;;;;;;17.05;11.30;;;;;;;13.97;55.14;101656.91;4980854;28;20085;-82
2021/11/14 07:29:19;;;;;;;15.93;11.18;;;;;;;13.96;55.07;101657.88;4969843;28;20101;-82
2021/11/14 07:31:45;;;;;;;16.50;10.15;;;;;;;13.97;55.30;101665.09;4972537;28;20094;-81
2021/11/14 07:34:12;;;;;;;13.27;9.15;;;;;;;13.97;55.16;101668.69;4966865;28;20142;-81
2021/11/14 07:36:39;;;;;;;14.93;9.48;;;;;;;13.95;55.10;101673.38;4954289;28;20042;-82
2021/11/14 07:39:05;;;;;;;16.40;9.88;;;;;;;13.96;54.97;101680.59;4971829;28;20059;-82
2021/11/14 07:41:32;;;;;;;14.70;10.02;;;;;;;13.97;54.95;101686.94;4976067;28;20065;-82
2021/11/14 07:43:59;;;;;;;12.88;8.88;;;;;;;13.96;55.13;101682.44;4968702;28;20137;-82
2021/11/14 07:46:26;;;;;;;12.00;8.23;;;;;;;13.96;55.13;101680.59;4972408;28;20129;-82
2021/11/14 07:48:54;;;;;;;15.52;8.93;;;;;;;13.97;55.18;101687.81;4986374;28;20061;-82
2021/11/14 07:51:26;;;;;;;12.68;7.97;;;;;;;13.95;55.11;101683.41;4971995;28;20082;-81
2021/11/14 07:53:53;;;;;;;13.57;8.90;;;;;;;13.98;55.12;101691.41;4972287;28;20508;-82
2021/11/14 07:56:19;;;;;;;13.45;8.65;;;;;;;13.99;55.20;101698.63;4999794;28;20062;-82
2021/11/14 07:58:46;;;;;;;13.30;8.52;;;;;;;13.99;55.11;101704.09;4973196;28;20083;-82
2021/11/14 08:01:12;;;;;;;13.45;8.32;;;;;;;13.99;54.83;101699.50;4982208;28;20520;-82
2021/11/14 08:03:39;;;;;;;11.43;7.95;;;;;;;14.01;54.88;101707.56;4986766;28;20413;-82
2021/11/14 08:06:07;;;;;;;12.15;7.70;;;;;;;14.00;54.88;101705.84;4972748;28;20050;-82
2021/11/14 08:08:33;;;;;;;13.85;8.88;;;;;;;14.00;55.05;101714.03;4971213;28;20070;-82
2021/11/14 08:11:00;;;;;;;12.55;8.45;;;;;;;14.00;55.01;101706.69;4968319;28;20459;-82
2021/11/14 08:13:27;;;;;;;15.02;8.82;;;;;;;13.99;55.06;101713.16;4963792;28;20047;-82
2021/11/14 08:15:54;;;;;;;12.38;7.78;;;;;;;13.99;54.98;101724.09;4971891;28;20057;-83
2021/11/14 08:18:22;;;;;;;13.07;8.70;;;;;;;13.99;54.87;101726.81;4980548;28;20042;-83
2021/11/14 08:20:49;;;;;;;13.18;8.40;;;;;;;14.00;55.04;101727.69;4969695;28;20121;-83
2021/11/14 08:23:17;;;;;;;13.23;7.85;;;;;;;14.00;54.79;101731.25;4973196;28;20514;-84
2021/11/14 08:25:49;;;;;;;17.17;9.38;;;;;;;13.99;55.14;101726.81;4980956;28;20047;-84
2021/11/14 08:28:16;;;;;;;14.52;8.98;;;;;;;13.99;55.25;101735.00;4981407;28;20093;-83
2021/11/14 08:30:43;;;;;;;15.18;9.27;;;;;;;14.00;54.76;101738.59;4970448;28;20067;-83
2021/11/14 08:33:33;;;;;;;14.50;9.13;;;;;;;13.95;54.96;101733.44;4970846;28;20062;-82
2021/11/14 08:36:00;;;;;;;12.90;9.15;;;;;;;13.94;54.96;101745.34;4971936;28;20050;-83
2021/11/14 08:38:29;;;;;;;15.70;9.35;;;;;;;13.94;54.73;101745.34;4967872;28;20098;-83
2021/11/14 08:40:56;;;;;;;14.00;9.23;;;;;;;13.91;54.62;101748.28;4970053;28;20732;-83
2021/11/14 08:43:23;;;;;;;14.88;8.88;;;;;;;13.88;54.50;101753.94;4972040;28;20054;-82
2021/11/14 08:45:49;;;;;;;15.07;8.98;;;;;;;13.86;54.45;101755.88;4970680;28;20051;-83
2021/11/14 08:48:21;;;;;;;13.77;8.45;;;;;;;13.85;54.73;101756.88;4973114;28;20153;-83
2021/11/14 08:50:48;;;;;;;14.07;9.23;;;;;;;13.84;54.77;101767.88;4969834;28;20047;-83
2021/11/14 08:53:16;;;;;;;13.98;8.63;;;;;;;13.83;54.53;101766.16;4971576;28;20058;-83
2021/11/14 08:55:43;;;;;;;14.05;8.63;;;;;;;13.82;54.28;101761.66;4981446;28;20086;-83
2021/11/14 08:58:28;;;;;;;12.05;8.80;;;;;;;13.80;54.70;101778.13;4971724;28;20514;-83
2021/11/14 09:00:55;;;;;;;13.05;8.95;;;;;;;13.79;54.66;101768.19;4968233;28;20466;-83
2021/11/14 09:03:22;;;;;;;13.02;8.95;;;;;;;13.78;54.37;101771.91;4967413;28;20055;-84
2021/11/14 09:05:49;;;;;;;13.40;8.90;;;;;;;13.78;54.46;101781.94;4966615;28;20109;-83
2021/11/14 09:08:15;;;;;;;14.23;9.02;;;;;;;13.77;54.69;101783.78;4971937;28;20402;-84
2021/11/14 09:10:44;;;;;;;15.30;9.43;;;;;;;13.77;54.75;101782.91;4966017;28;20059;-83
2021/11/14 09:13:13;;;;;;;15.32;9.13;;;;;;;13.78;54.82;101784.66;4967313;28;20053;-83
2021/11/14 09:15:40;;;;;;;12.73;7.85;;;;;;;13.77;54.86;101781.06;4959698;28;20074;-83
2021/11/14 09:18:16;;;;;;;13.90;8.82;;;;;;;13.76;54.93;101787.50;4966859;28;20550;-83
2021/11/14 09:20:46;;;;;;;13.75;8.10;;;;;;;13.79;54.77;101789.16;4964556;28;20062;-83
2021/11/14 09:23:14;;;;;;;12.43;8.18;;;;;;;13.79;55.07;101789.16;4967443;28;20138;-83
2021/11/14 09:25:42;;;;;;;13.50;8.57;;;;;;;13.79;54.87;101791.88;4974307;28;20050;-83
2021/11/14 09:28:13;;;;;;;12.27;7.72;;;;;;;13.82;54.99;101795.31;4978652;28;20051;-83
2021/11/14 09:30:42;;;;;;;12.23;8.00;;;;;;;13.83;55.04;101799.78;4968718;28;20062;-82
2021/11/14 09:33:11;;;;;;;12.65;7.78;;;;;;;13.84;55.04;101804.25;4972936;28;20054;-81
2021/11/14 09:35:38;;;;;;;11.52;7.40;;;;;;;13.86;54.80;101804.16;4983827;28;20050;-83
2021/11/14 09:38:05;;;;;;;12.70;7.78;;;;;;;13.86;55.31;101807.75;4968969;28;20125;-84
2021/11/14 09:40:37;;;;;;;11.35;7.75;;;;;;;13.92;55.18;101812.81;4969406;28;20512;-82
2021/11/14 09:43:04;;;;;;;11.38;7.68;;;;;;;13.92;55.05;101818.25;4971133;28;20497;-82
2021/11/14 09:45:33;;;;;;;11.63;7.47;;;;;;;13.95;54.86;101818.06;4967392;28;20165;-83
2021/11/14 09:48:00;;;;;;;11.30;7.80;;;;;;;13.97;55.07;101815.25;4985249;28;20053;-82
2021/11/14 09:50:31;;;;;;;12.68;7.78;;;;;;;13.97;54.94;101818.84;4963299;28;20054;-82
2021/11/14 09:52:58;;;;;;;9.85;6.40;;;;;;;14.01;54.62;101827.72;4985130;28;20142;-82
2021/11/14 09:55:30;;;;;;;10.27;6.72;;;;;;;14.03;54.80;101823.03;4968803;28;20050;-82
2021/11/14 09:57:58;;;;;;;10.10;6.72;;;;;;;14.02;54.62;101822.16;4970585;28;20046;-82
2021/11/14 10:00:28;;;;;;;10.65;6.40;;;;;;;14.03;54.53;101818.44;4970516;28;20105;-82
2021/11/14 10:02:55;;;;;;;9.43;6.30;;;;;;;14.04;54.76;101825.66;4968395;28;20146;-82
2021/11/14 10:05:22;;;;;;;10.57;6.20;;;;;;;14.03;54.62;101829.38;4968699;28;20578;-82
2021/11/14 10:08:05;;;;;;;9.13;5.72;;;;;;;14.06;54.31;101828.31;4970151;28;20074;-81
2021/11/14 10:10:36;;;;;;;9.43;5.95;;;;;;;14.02;54.64;101832.19;4966719;28;20076;-81
2021/11/14 10:13:19;;;;;;;9.70;6.07;;;;;;;14.05;54.47;101830.16;4963625;28;20059;-81
2021/11/14 10:15:50;;;;;;;9.50;6.22;;;;;;;14.05;54.46;101832.00;4968289;28;20055;-81
2021/11/14 10:18:19;;;;;;;8.73;5.57;;;;;;;14.04;54.38;101836.59;4960129;28;20053;-83
2021/11/14 10:20:47;;;;;;;7.38;5.15;;;;;;;14.02;54.43;101833.06;4969218;28;20481;-83
2021/11/14 10:23:16;;;;;;;8.23;5.35;;;;;;;14.03;54.18;101842.16;4969852;28;20058;-81
2021/11/14 10:25:44;;;;;;;9.43;5.43;;;;;;;14.02;54.21;101843.13;4965817;28;20054;-82
2021/11/14 10:28:11;;;;;;;8.18;5.65;;;;;;;13.99;54.13;101844.22;4960839;28;20055;-82
2021/11/14 10:30:46;;;;;;;8.25;5.28;;;;;;;14.01;54.21;101842.25;4965515;28;20101;-80
2021/11/14 10:33:16;;;;;;;7.70;5.22;;;;;;;13.98;53.86;101834.25;4966378;28;20470;-82
2021/11/14 10:35:45;;;;;;;7.63;5.18;;;;;;;13.98;54.46;101833.38;4968163;28;20055;-82
2021/11/14 10:38:15;;;;;;;7.35;5.05;;;;;;;13.99;54.30;101841.50;4968824;28;20137;-83
2021/11/14 10:40:57;;;;;;;6.90;5.07;;;;;;;14.00;54.04;101845.94;4967338;28;20522;-82
2021/11/14 10:43:25;;;;;;;7.07;4.85;;;;;;;13.97;54.44;101843.44;4960433;28;20398;-83
2021/11/14 10:45:52;;;;;;;7.82;4.72;;;;;;;13.98;53.87;101855.22;4968349;28;20051;-83
2021/11/14 10:48:22;;;;;;;7.22;5.10;;;;;;;14.00;54.12;101850.56;4965574;28;20044;-82
2021/11/14 10:50:55;;;;;;;6.45;4.32;;;;;;;14.01;54.05;101850.44;4956728;28;20058;-83
2021/11/14 10:53:25;;;;;;;7.70;4.97;;;;;;;14.01;54.53;101858.63;4968361;28;20050;-82
2021/11/14 10:55:58;;;;;;;6.45;4.78;;;;;;;14.02;54.38;101846.72;4970292;28;20066;-81
2021/11/14 10:58:28;;;;;;;5.90;4.25;;;;;;;14.05;54.62;101856.59;4970146;28;20042;-82
2021/11/14 11:01:00;;;;;;;7.07;4.13;;;;;;;14.06;53.94;101852.88;4937930;29;20078;-81
2021/11/14 11:03:42;;;;;;;5.47;3.88;;;;;;;14.06;53.97;101851.03;4969623;28;20051;-81
2021/11/14 11:06:27;;;;;;;6.60;3.50;;;;;;;14.03;53.96;101853.94;4968042;28;20510;-80
2021/11/14 11:08:59;;;;;;;5.28;3.60;;;;;;;14.03;54.09;101851.22;4967192;28;20872;-80
2021/11/14 11:11:33;;;;;;;5.05;3.47;;;;;;;14.01;53.72;101853.16;4969800;28;20055;-81
2021/11/14 11:14:00;;;;;;;4.72;2.63;;;;;;;13.98;53.93;101845.19;4969535;28;20086;-80
2021/11/14 11:16:29;;;;;;;4.65;3.15;;;;;;;14.00;53.45;101848.66;4968270;28;20501;-80
2021/11/14 11:18:59;;;;;;;5.68;3.53;;;;;;;13.99;53.71;101862.44;4968747;28;20498;-80
2021/11/14 11:21:36;;;;;;;5.53;3.47;;;;;;;13.99;53.35;101851.53;4974027;28;20132;-79
2021/11/14 11:24:07;;;;;;;4.53;2.92;;;;;;;13.99;53.18;101860.59;4971331;28;20066;-81
2021/11/14 11:26:34;;;;;;;4.45;3.00;;;;;;;13.96;53.59;101866.25;4970717;28;20054;-81
2021/11/14 11:29:00;;;;;;;5.40;3.15;;;;;;;13.95;53.69;101864.50;4973255;28;20145;-80